Time;durP1;ratioP1;P1;durP2;ratioP2;P2;SDS_P1;SDS_P2;PMS_P1;PMS_P2;Temp;Humidity;BMP_temperature;BMP_pressure;BME280_temperature;BME280_humidity;BME280_pressure;Samples;Min_cycle;Max_cycle;Signal;HPM_P1;HPM_P2
2023/10/19 00:02:15;;;;;;;10.93;8.80;;;;;;;;;;4998566;28;89414;-65
2023/10/19 00:04:41;;;;;;;13.40;9.75;;;;;;;;;;4998155;28;88960;-65
2023/10/19 00:07:15;;;;;;;11.75;9.52;;;;;;;;;;5006159;28;90712;-65
2023/10/19 00:09:46;;;;;;;10.57;8.95;;;;;;;;;;5006344;28;90136;-65
2023/10/19 00:12:15;;;;;;;12.88;9.13;;;;;;;;;;4998397;28;87619;-64
2023/10/19 00:14:41;;;;;;;11.50;9.50;;;;;;;;;;5009200;28;88369;-64
2023/10/19 00:17:10;;;;;;;12.65;9.75;;;;;;;;;;5000225;28;88878;-64
2023/10/19 00:19:57;;;;;;;13.13;9.90;;;;;;;;;;4997465;28;89402;-65
2023/10/19 00:22:24;;;;;;;12.93;9.60;;;;;;;;;;4997356;28;89211;-64
2023/10/19 00:24:50;;;;;;;14.98;9.68;;;;;;;;;;4997755;28;88147;-64
2023/10/19 00:27:19;;;;;;;15.10;9.52;;;;;;;;;;4997619;28;88540;-64
2023/10/19 00:29:49;;;;;;;10.68;9.38;;;;;;;;;;4998105;28;89044;-65
2023/10/19 00:32:17;;;;;;;12.52;10.50;;;;;;;;;;5001041;28;88054;-63
2023/10/19 00:34:51;;;;;;;12.25;9.27;;;;;;;;;;4996311;28;92156;-62
2023/10/19 00:37:20;;;;;;;15.70;9.70;;;;;;;;;;5000237;28;88224;-62
2023/10/19 00:39:54;;;;;;;11.57;9.63;;;;;;;;;;5001797;28;88144;-63
2023/10/19 00:42:31;;;;;;;13.98;10.07;;;;;;;;;;5001595;28;89024;-62
2023/10/19 00:45:05;;;;;;;12.32;9.90;;;;;;;;;;4997951;28;89156;-62
2023/10/19 00:47:39;;;;;;;19.83;10.90;;;;;;;;;;5001290;28;89493;-62
2023/10/19 00:50:15;;;;;;;23.08;10.80;;;;;;;;;;4997016;28;90100;-62
2023/10/19 00:52:45;;;;;;;14.55;10.82;;;;;;;;;;4997410;28;89949;-62
2023/10/19 00:55:13;;;;;;;14.90;10.18;;;;;;;;;;4996794;28;89404;-62
2023/10/19 00:57:45;;;;;;;15.00;10.52;;;;;;;;;;4996336;28;90201;-62
2023/10/19 01:00:12;;;;;;;11.95;9.73;;;;;;;;;;5000950;28;90046;-62
2023/10/19 01:02:47;;;;;;;17.15;10.68;;;;;;;;;;4997521;28;88232;-62
2023/10/19 01:05:14;;;;;;;13.43;11.43;;;;;;;;;;4996620;28;89133;-62
2023/10/19 01:07:41;;;;;;;15.60;11.88;;;;;;;;;;4995732;28;89929;-62
2023/10/19 01:10:08;;;;;;;15.38;10.85;;;;;;;;;;4994939;28;89675;-62
2023/10/19 01:12:38;;;;;;;17.48;11.18;;;;;;;;;;4995998;28;90021;-62
2023/10/19 01:15:07;;;;;;;15.48;11.55;;;;;;;;;;4996583;28;89524;-62
2023/10/19 01:17:38;;;;;;;13.57;11.35;;;;;;;;;;4998853;28;89128;-62
2023/10/19 01:20:18;;;;;;;16.80;12.25;;;;;;;;;;5002947;28;88930;-62
2023/10/19 01:22:53;;;;;;;14.70;12.30;;;;;;;;;;4996224;28;90179;-62
2023/10/19 01:25:33;;;;;;;21.30;13.07;;;;;;;;;;4995657;28;90144;-62
2023/10/19 01:28:07;;;;;;;16.40;12.27;;;;;;;;;;4995879;28;89824;-62
2023/10/19 01:30:33;;;;;;;18.15;12.88;;;;;;;;;;4996205;28;89728;-62
2023/10/19 01:33:00;;;;;;;16.85;13.27;;;;;;;;;;4995624;28;91050;-62
2023/10/19 01:36:10;;;;;;;16.73;13.43;;;;;;;;;;4996222;28;89709;-62
2023/10/19 01:38:13;;;;;;;18.60;13.27;;;;;;;;;;4996348;28;89996;-62
2023/10/19 01:40:46;;;;;;;19.00;12.63;;;;;;;;;;4996176;28;91089;-62
2023/10/19 01:43:21;;;;;;;19.55;12.38;;;;;;;;;;4997945;28;90023;-64
2023/10/19 01:45:48;;;;;;;22.27;13.15;;;;;;;;;;4995024;28;90326;-65
2023/10/19 01:48:16;;;;;;;18.35;12.63;;;;;;;;;;5002668;28;89561;-64
2023/10/19 01:50:42;;;;;;;19.52;13.30;;;;;;;;;;4995613;28;89438;-64
2023/10/19 01:53:15;;;;;;;17.00;12.63;;;;;;;;;;4995237;28;90321;-65
2023/10/19 01:55:44;;;;;;;19.40;13.32;;;;;;;;;;4999615;28;89537;-65
2023/10/19 01:58:11;;;;;;;25.05;13.63;;;;;;;;;;4999528;28;89071;-64
2023/10/19 02:00:37;;;;;;;19.33;13.40;;;;;;;;;;4994762;28;89956;-64
2023/10/19 02:03:07;;;;;;;19.40;13.20;;;;;;;;;;4997900;28;89577;-65
2023/10/19 02:05:41;;;;;;;23.60;13.38;;;;;;;;;;5000177;28;89315;-64
2023/10/19 02:08:08;;;;;;;19.48;13.38;;;;;;;;;;4999098;28;89460;-65
2023/10/19 02:10:35;;;;;;;19.50;13.15;;;;;;;;;;4995740;28;90002;-65
2023/10/19 02:13:06;;;;;;;18.50;12.75;;;;;;;;;;4998897;28;89915;-64
2023/10/19 02:15:34;;;;;;;17.27;12.32;;;;;;;;;;4994910;28;89527;-65
2023/10/19 02:18:02;;;;;;;18.23;12.57;;;;;;;;;;4998378;28;89039;-65
2023/10/19 02:20:29;;;;;;;20.40;12.95;;;;;;;;;;4998649;28;90053;-65
2023/10/19 02:23:06;;;;;;;23.80;14.02;;;;;;;;;;4999489;28;89534;-65
2023/10/19 02:25:36;;;;;;;22.60;12.80;;;;;;;;;;4994087;28;88971;-64
2023/10/19 02:28:06;;;;;;;22.73;13.27;;;;;;;;;;5001839;28;89954;-64
2023/10/19 02:30:34;;;;;;;17.70;12.52;;;;;;;;;;4998780;28;88972;-64
2023/10/19 02:33:05;;;;;;;19.98;12.93;;;;;;;;;;4995320;28;89768;-64
2023/10/19 02:35:32;;;;;;;14.20;11.23;;;;;;;;;;4994813;28;89617;-64
2023/10/19 02:37:58;;;;;;;23.92;11.88;;;;;;;;;;4994477;28;89048;-64
2023/10/19 02:40:25;;;;;;;25.95;13.05;;;;;;;;;;4994288;28;90032;-64
2023/10/19 02:42:53;;;;;;;24.50;13.07;;;;;;;;;;4999032;28;90601;-64
2023/10/19 02:45:19;;;;;;;20.25;12.25;;;;;;;;;;4994874;28;88971;-64
2023/10/19 02:47:46;;;;;;;22.27;12.10;;;;;;;;;;4998503;28;90034;-64
2023/10/19 02:50:22;;;;;;;17.50;12.13;;;;;;;;;;4996526;28;89501;-64
2023/10/19 02:52:48;;;;;;;18.58;12.35;;;;;;;;;;4994493;28;90088;-62
2023/10/19 02:55:19;;;;;;;15.52;11.02;;;;;;;;;;5007249;28;90607;-62
2023/10/19 02:57:46;;;;;;;21.95;11.93;;;;;;;;;;4998556;28;89129;-62
2023/10/19 03:00:15;;;;;;;14.57;11.15;;;;;;;;;;4997280;28;91085;-62
2023/10/19 03:02:41;;;;;;;20.20;11.75;;;;;;;;;;4999066;28;90509;-62
2023/10/19 03:05:14;;;;;;;20.13;12.00;;;;;;;;;;4999490;28;89247;-62
2023/10/19 03:07:43;;;;;;;16.85;11.55;;;;;;;;;;4997812;28;91084;-62
2023/10/19 03:11:03;;;;;;;16.92;11.07;;;;;;;;;;4997686;28;89550;-62
2023/10/19 03:13:01;;;;;;;19.60;12.00;;;;;;;;;;4997115;28;89033;-61
2023/10/19 03:15:30;;;;;;;18.48;11.02;;;;;;;;;;4997790;28;89567;-61
2023/10/19 03:17:56;;;;;;;17.55;11.23;;;;;;;;;;5000298;28;89083;-62
2023/10/19 03:20:25;;;;;;;15.45;10.43;;;;;;;;;;4998005;28;90078;-62
2023/10/19 03:22:51;;;;;;;14.13;10.43;;;;;;;;;;5001617;28;90558;-62
2023/10/19 03:26:17;;;;;;;17.45;11.23;;;;;;;;;;4997168;28;90015;-62
2023/10/19 03:28:26;;;;;;;17.52;10.48;;;;;;;;;;5002434;28;90088;-62
2023/10/19 03:30:55;;;;;;;16.00;10.57;;;;;;;;;;4998200;28;89560;-62
2023/10/19 03:33:26;;;;;;;15.10;9.70;;;;;;;;;;5004895;28;88962;-62
2023/10/19 03:35:54;;;;;;;21.05;9.43;;;;;;;;;;5003049;28;88139;-62
2023/10/19 03:38:22;;;;;;;20.42;9.88;;;;;;;;;;4998818;28;89093;-62
2023/10/19 03:40:52;;;;;;;14.75;9.45;;;;;;;;;;4998167;28;88678;-62
2023/10/19 03:43:21;;;;;;;17.00;9.20;;;;;;;;;;4998779;28;89485;-62
2023/10/19 03:45:52;;;;;;;13.75;8.95;;;;;;;;;;4998563;28;88952;-62
2023/10/19 03:48:24;;;;;;;16.23;8.15;;;;;;;;;;5002386;28;87958;-62
2023/10/19 03:50:52;;;;;;;16.65;9.35;;;;;;;;;;4998777;28;88013;-62
2023/10/19 03:53:18;;;;;;;12.68;8.65;;;;;;;;;;5006958;28;89002;-62
2023/10/19 03:55:47;;;;;;;15.60;8.35;;;;;;;;;;5001516;28;88251;-62
2023/10/19 03:58:13;;;;;;;15.65;8.85;;;;;;;;;;4999354;28;89183;-63
2023/10/19 04:00:40;;;;;;;19.33;7.75;;;;;;;;;;5005045;28;89039;-62
2023/10/19 04:03:07;;;;;;;16.83;7.90;;;;;;;;;;4997981;28;88816;-63
2023/10/19 04:05:38;;;;;;;13.27;7.60;;;;;;;;;;5011666;28;90279;-62
2023/10/19 04:08:12;;;;;;;12.05;7.25;;;;;;;;;;5004252;28;88044;-62
2023/10/19 04:10:44;;;;;;;10.77;6.75;;;;;;;;;;5004615;28;88125;-62
2023/10/19 04:13:11;;;;;;;11.75;5.90;;;;;;;;;;5001307;28;88982;-62
2023/10/19 04:15:41;;;;;;;10.95;5.45;;;;;;;;;;5002705;28;88222;-62
2023/10/19 04:18:10;;;;;;;11.93;4.90;;;;;;;;;;5003968;28;88747;-62
2023/10/19 04:23:20;;;;;;;7.72;4.20;;;;;;;;;;5005770;28;90484;-61
2023/10/19 04:25:47;;;;;;;10.68;3.45;;;;;;;;;;4997643;28;88949;-62
2023/10/19 04:28:14;;;;;;;21.27;4.35;;;;;;;;;;5001202;28;88148;-62
2023/10/19 04:30:40;;;;;;;7.13;2.90;;;;;;;;;;5005734;28;89382;-62
2023/10/19 04:33:10;;;;;;;9.00;2.55;;;;;;;;;;4997377;28;88794;-62
2023/10/19 04:35:37;;;;;;;13.40;3.40;;;;;;;;;;5002341;28;88521;-62
2023/10/19 04:38:06;;;;;;;15.25;2.63;;;;;;;;;;4997051;28;88778;-62
2023/10/19 04:40:32;;;;;;;7.13;2.13;;;;;;;;;;5004689;28;88667;-62
2023/10/19 04:42:59;;;;;;;8.65;1.80;;;;;;;;;;4996825;28;88708;-62
2023/10/19 04:45:25;;;;;;;5.03;2.00;;;;;;;;;;4997627;28;89170;-62
2023/10/19 04:47:52;;;;;;;7.45;1.95;;;;;;;;;;5002132;28;87606;-62
2023/10/19 04:50:19;;;;;;;5.93;1.90;;;;;;;;;;4997331;28;89230;-62
2023/10/19 04:52:45;;;;;;;10.93;1.90;;;;;;;;;;4997779;28;88953;-62
2023/10/19 04:55:12;;;;;;;9.23;1.80;;;;;;;;;;4999138;28;88688;-62
2023/10/19 04:57:38;;;;;;;8.70;1.38;;;;;;;;;;4997376;28;89299;-63
2023/10/19 05:00:05;;;;;;;4.50;1.65;;;;;;;;;;4999680;28;88202;-62
2023/10/19 05:02:31;;;;;;;9.38;2.60;;;;;;;;;;5000747;28;88156;-62
2023/10/19 05:04:58;;;;;;;3.88;1.40;;;;;;;;;;4997041;28;89182;-62
2023/10/19 05:07:26;;;;;;;12.73;1.80;;;;;;;;;;5001049;28;87988;-62
2023/10/19 05:09:53;;;;;;;4.28;1.20;;;;;;;;;;4997252;28;89075;-62
2023/10/19 05:12:21;;;;;;;10.90;1.85;;;;;;;;;;5001072;28;88594;-62
2023/10/19 05:14:47;;;;;;;3.95;1.50;;;;;;;;;;4997053;28;88153;-62
2023/10/19 05:17:14;;;;;;;6.90;1.67;;;;;;;;;;5001106;28;88720;-62
2023/10/19 05:19:40;;;;;;;5.32;1.35;;;;;;;;;;5000079;28;89721;-62
2023/10/19 05:22:08;;;;;;;6.22;1.63;;;;;;;;;;4997184;28;88008;-62
2023/10/19 05:24:35;;;;;;;8.38;1.92;;;;;;;;;;5000653;28;88997;-62
2023/10/19 05:27:01;;;;;;;4.13;1.42;;;;;;;;;;4998349;28;88146;-62
2023/10/19 05:29:27;;;;;;;3.15;1.25;;;;;;;;;;5000937;28;89723;-63
2023/10/19 05:31:54;;;;;;;4.82;1.40;;;;;;;;;;4997034;28;89589;-62
2023/10/19 05:34:21;;;;;;;12.85;1.95;;;;;;;;;;5000904;27;89094;-62
2023/10/19 05:36:51;;;;;;;5.82;1.20;;;;;;;;;;4997294;28;88897;-62
2023/10/19 05:39:18;;;;;;;9.07;1.45;;;;;;;;;;4996476;28;89016;-62
2023/10/19 05:41:44;;;;;;;7.95;1.73;;;;;;;;;;5000546;28;87909;-62
2023/10/19 05:44:10;;;;;;;9.43;1.48;;;;;;;;;;4998548;28;88889;-62
2023/10/19 05:46:38;;;;;;;5.05;1.60;;;;;;;;;;5001487;28;89033;-62
2023/10/19 05:49:06;;;;;;;8.45;1.85;;;;;;;;;;4996457;28;88720;-62
2023/10/19 05:51:32;;;;;;;10.05;1.73;;;;;;;;;;5009930;28;89069;-62
2023/10/19 05:54:03;;;;;;;7.60;1.63;;;;;;;;;;4998348;28;88943;-63
2023/10/19 05:56:30;;;;;;;8.45;1.88;;;;;;;;;;4996481;28;88159;-61
2023/10/19 05:58:57;;;;;;;11.15;1.60;;;;;;;;;;5003612;28;88902;-62
2023/10/19 06:01:24;;;;;;;9.70;1.73;;;;;;;;;;4996912;28;87704;-62
2023/10/19 06:03:51;;;;;;;6.93;2.25;;;;;;;;;;4996332;28;88019;-62
2023/10/19 06:06:19;;;;;;;7.38;2.10;;;;;;;;;;4998434;28;88517;-62
2023/10/19 06:08:46;;;;;;;7.72;2.03;;;;;;;;;;4994459;28;88896;-62
2023/10/19 06:11:13;;;;;;;18.95;2.45;;;;;;;;;;4995892;28;88298;-62
2023/10/19 06:13:39;;;;;;;11.80;2.05;;;;;;;;;;4996341;28;88419;-62
2023/10/19 06:16:05;;;;;;;8.68;1.70;;;;;;;;;;4995200;28;88412;-62
2023/10/19 06:18:32;;;;;;;9.25;1.92;;;;;;;;;;4998626;28;89467;-62
2023/10/19 06:20:58;;;;;;;4.88;1.55;;;;;;;;;;4996426;28;88010;-63
2023/10/19 06:23:25;;;;;;;7.90;1.63;;;;;;;;;;5000007;28;88824;-62
2023/10/19 06:25:51;;;;;;;5.25;1.50;;;;;;;;;;4996861;27;87151;-61
2023/10/19 06:28:18;;;;;;;10.40;2.03;;;;;;;;;;4998563;28;88087;-61
2023/10/19 06:30:45;;;;;;;5.43;2.00;;;;;;;;;;5000012;28;89036;-63
2023/10/19 06:33:11;;;;;;;11.10;2.20;;;;;;;;;;4999245;28;88797;-62
2023/10/19 06:35:37;;;;;;;14.13;3.28;;;;;;;;;;4995733;28;90634;-62
2023/10/19 06:38:04;;;;;;;5.40;2.35;;;;;;;;;;4995846;28;91668;-62
2023/10/19 06:40:33;;;;;;;8.90;1.77;;;;;;;;;;5000115;28;87994;-62
2023/10/19 06:43:02;;;;;;;12.40;2.35;;;;;;;;;;4995562;28;88789;-63
2023/10/19 06:45:31;;;;;;;7.15;2.67;;;;;;;;;;4995054;28;90045;-62
2023/10/19 06:47:59;;;;;;;10.27;1.92;;;;;;;;;;5000113;28;90665;-62
2023/10/19 06:50:26;;;;;;;13.40;2.47;;;;;;;;;;4998854;28;88829;-62
2023/10/19 06:52:54;;;;;;;6.95;2.20;;;;;;;;;;4995216;28;88180;-62
2023/10/19 06:55:21;;;;;;;9.05;2.45;;;;;;;;;;4995435;28;88867;-62
2023/10/19 06:57:48;;;;;;;8.52;2.08;;;;;;;;;;4998880;28;89725;-62
2023/10/19 07:00:18;;;;;;;6.85;2.33;;;;;;;;;;4998698;28;88019;-62
2023/10/19 07:02:45;;;;;;;6.43;2.20;;;;;;;;;;4999106;28;88695;-62
2023/10/19 07:05:20;;;;;;;9.50;2.67;;;;;;;;;;4995860;28;90094;-62
2023/10/19 07:07:47;;;;;;;10.90;3.03;;;;;;;;;;4997858;28;89078;-62
2023/10/19 07:10:14;;;;;;;9.05;2.50;;;;;;;;;;5001177;28;88133;-62
2023/10/19 07:13:00;;;;;;;4.07;1.90;;;;;;;;;;5001930;28;89041;-62
2023/10/19 07:15:28;;;;;;;12.02;2.58;;;;;;;;;;5000000;28;88766;-63
2023/10/19 07:17:54;;;;;;;5.88;2.58;;;;;;;;;;4995006;28;90182;-63
2023/10/19 07:20:29;;;;;;;3.47;2.20;;;;;;;;;;4999562;28;88496;-62
2023/10/19 07:22:56;;;;;;;6.70;2.22;;;;;;;;;;4994522;28;88643;-62
2023/10/19 07:25:25;;;;;;;5.03;2.15;;;;;;;;;;4995165;28;88859;-62
2023/10/19 07:27:52;;;;;;;9.35;2.55;;;;;;;;;;5002747;28;88874;-62
2023/10/19 07:30:26;;;;;;;10.77;2.30;;;;;;;;;;4995990;28;88916;-62
2023/10/19 07:32:58;;;;;;;4.57;2.25;;;;;;;;;;4995241;28;89545;-63
2023/10/19 07:35:26;;;;;;;7.95;2.33;;;;;;;;;;5009888;28;88251;-65
2023/10/19 07:37:52;;;;;;;4.85;2.13;;;;;;;;;;4998464;28;90041;-64
2023/10/19 07:40:19;;;;;;;9.77;2.50;;;;;;;;;;4996206;28;87260;-65
2023/10/19 07:42:46;;;;;;;9.43;2.42;;;;;;;;;;4992633;28;88412;-65
2023/10/19 07:45:12;;;;;;;5.40;2.38;;;;;;;;;;4994738;28;88973;-65
2023/10/19 07:47:42;;;;;;;11.90;2.33;;;;;;;;;;4994751;28;88917;-65
2023/10/19 07:50:12;;;;;;;5.33;2.30;;;;;;;;;;4995275;28;89317;-65
2023/10/19 07:52:38;;;;;;;11.32;2.38;;;;;;;;;;4998903;28;89020;-65
2023/10/19 07:55:06;;;;;;;6.65;2.10;;;;;;;;;;5003887;28;88537;-65
2023/10/19 07:57:34;;;;;;;8.63;2.08;;;;;;;;;;5007042;28;89050;-65
2023/10/19 08:00:00;;;;;;;10.95;2.30;;;;;;;;;;5009546;28;88842;-65
2023/10/19 08:02:30;;;;;;;10.43;2.13;;;;;;;;;;5006546;28;90001;-65
2023/10/19 08:04:57;;;;;;;10.68;2.05;;;;;;;;;;4998981;28;89294;-64
2023/10/19 08:07:26;;;;;;;8.50;2.67;;;;;;;;;;4997792;28;88150;-64
2023/10/19 08:09:52;;;;;;;12.52;2.13;;;;;;;;;;4998401;28;88934;-65
2023/10/19 08:12:19;;;;;;;19.05;1.90;;;;;;;;;;5001953;28;89737;-65
2023/10/19 08:14:46;;;;;;;10.82;2.00;;;;;;;;;;4998311;28;89013;-65
2023/10/19 08:17:12;;;;;;;9.60;2.08;;;;;;;;;;5009845;28;89354;-65
2023/10/19 08:19:39;;;;;;;11.15;2.30;;;;;;;;;;4998529;28;88895;-64
2023/10/19 08:22:05;;;;;;;9.70;2.10;;;;;;;;;;4998001;28;89829;-65
2023/10/19 08:24:34;;;;;;;6.53;2.05;;;;;;;;;;4998012;28;90100;-64
2023/10/19 08:27:01;;;;;;;12.68;2.60;;;;;;;;;;5001832;28;88316;-63
2023/10/19 08:29:30;;;;;;;12.65;1.98;;;;;;;;;;4997778;28;88814;-65
2023/10/19 08:31:56;;;;;;;9.60;2.33;;;;;;;;;;4997755;28;90010;-65
2023/10/19 08:34:25;;;;;;;10.45;3.17;;;;;;;;;;4997013;28;88264;-64
2023/10/19 08:36:51;;;;;;;12.32;2.60;;;;;;;;;;5000635;28;89241;-65
2023/10/19 08:39:18;;;;;;;10.45;2.13;;;;;;;;;;5004207;28;88986;-65
2023/10/19 08:41:44;;;;;;;8.57;2.33;;;;;;;;;;4998030;28;90191;-65
2023/10/19 08:44:10;;;;;;;14.30;2.10;;;;;;;;;;5001267;28;90031;-64
2023/10/19 08:46:43;;;;;;;9.70;2.55;;;;;;;;;;4998852;28;89045;-64
2023/10/19 08:49:12;;;;;;;7.15;1.95;;;;;;;;;;4998008;28;88810;-64
2023/10/19 08:51:39;;;;;;;11.35;2.10;;;;;;;;;;5000874;28;89170;-65
2023/10/19 08:54:05;;;;;;;9.70;2.22;;;;;;;;;;4998082;28;88262;-65
2023/10/19 08:56:33;;;;;;;12.57;2.33;;;;;;;;;;4997467;28;88954;-65
2023/10/19 08:59:00;;;;;;;10.40;2.15;;;;;;;;;;5001042;28;88219;-65
2023/10/19 09:01:28;;;;;;;13.18;2.33;;;;;;;;;;5014938;28;91023;-65
2023/10/19 09:03:58;;;;;;;9.05;2.17;;;;;;;;;;5004352;28;89026;-65
2023/10/19 09:06:25;;;;;;;9.60;2.70;;;;;;;;;;5010546;28;91264;-65
2023/10/19 09:08:51;;;;;;;13.57;2.45;;;;;;;;;;4997121;28;88805;-64
2023/10/19 09:11:20;;;;;;;9.88;2.83;;;;;;;;;;4997198;28;88899;-64
2023/10/19 09:13:50;;;;;;;13.68;2.47;;;;;;;;;;5003010;28;87955;-65
2023/10/19 09:16:20;;;;;;;9.18;1.92;;;;;;;;;;5003515;28;88557;-65
2023/10/19 09:18:47;;;;;;;13.00;2.50;;;;;;;;;;4997468;28;88245;-65
2023/10/19 09:21:26;;;;;;;14.20;2.83;;;;;;;;;;4996663;28;88149;-65
2023/10/19 09:23:53;;;;;;;13.32;2.78;;;;;;;;;;4999467;28;88743;-65
2023/10/19 09:26:21;;;;;;;12.00;1.88;;;;;;;;;;4995705;28;88728;-65
2023/10/19 09:28:49;;;;;;;9.93;1.85;;;;;;;;;;5001066;28;89491;-65
2023/10/19 09:31:16;;;;;;;10.90;2.67;;;;;;;;;;4997708;28;90558;-65
2023/10/19 09:33:46;;;;;;;12.82;2.65;;;;;;;;;;5003274;28;88359;-65
2023/10/19 09:36:13;;;;;;;14.32;2.45;;;;;;;;;;4997451;28;89140;-65
2023/10/19 09:38:53;;;;;;;14.05;2.17;;;;;;;;;;4998819;28;89129;-65
2023/10/19 09:41:22;;;;;;;10.75;2.10;;;;;;;;;;4996209;28;87932;-65
2023/10/19 09:43:49;;;;;;;10.38;2.53;;;;;;;;;;4999626;28;88789;-65
2023/10/19 09:46:38;;;;;;;6.78;2.63;;;;;;;;;;5009269;28;90328;-65
2023/10/19 09:49:06;;;;;;;14.80;3.05;;;;;;;;;;5000799;28;89376;-65
2023/10/19 09:51:33;;;;;;;9.80;2.38;;;;;;;;;;4996223;28;91093;-65
2023/10/19 09:54:09;;;;;;;13.60;2.88;;;;;;;;;;4996286;28;88099;-65
2023/10/19 09:56:36;;;;;;;9.82;2.55;;;;;;;;;;4996938;28;90003;-62
2023/10/19 09:59:05;;;;;;;12.27;3.08;;;;;;;;;;4997057;28;89966;-62
2023/10/19 10:01:50;;;;;;;12.48;3.28;;;;;;;;;;4996958;28;89124;-63
2023/10/19 10:04:30;;;;;;;14.18;2.90;;;;;;;;;;4996318;28;90188;-62
2023/10/19 10:06:59;;;;;;;13.05;2.88;;;;;;;;;;4999564;28;88124;-64
2023/10/19 10:09:25;;;;;;;14.57;3.38;;;;;;;;;;4996392;28;88826;-62
2023/10/19 10:11:52;;;;;;;17.67;3.60;;;;;;;;;;4996780;28;89051;-63
2023/10/19 10:14:24;;;;;;;12.48;2.83;;;;;;;;;;4999851;28;89029;-63
2023/10/19 10:17:01;;;;;;;15.57;3.42;;;;;;;;;;5000706;28;88893;-63
2023/10/19 10:19:27;;;;;;;18.77;2.88;;;;;;;;;;4996741;28;89955;-63
2023/10/19 10:22:14;;;;;;;11.88;3.28;;;;;;;;;;4996002;28;87988;-62
2023/10/19 10:24:41;;;;;;;16.60;3.40;;;;;;;;;;4995695;28;88104;-63
2023/10/19 10:27:09;;;;;;;11.13;3.13;;;;;;;;;;4996227;28;88970;-63
2023/10/19 10:29:36;;;;;;;12.43;2.95;;;;;;;;;;4998493;28;88126;-63
2023/10/19 10:32:05;;;;;;;16.48;2.75;;;;;;;;;;4995477;28;89012;-63
2023/10/19 10:34:34;;;;;;;10.98;2.63;;;;;;;;;;5000419;27;87524;-62
2023/10/19 10:37:02;;;;;;;17.60;3.93;;;;;;;;;;4995990;27;88285;-62
2023/10/19 10:39:34;;;;;;;20.55;3.35;;;;;;;;;;4999824;28;89122;-62
2023/10/19 10:42:05;;;;;;;8.10;2.60;;;;;;;;;;4995424;28;89053;-63
2023/10/19 10:44:41;;;;;;;12.73;2.58;;;;;;;;;;4995199;27;89426;-62
2023/10/19 10:47:12;;;;;;;12.45;3.05;;;;;;;;;;4997136;28;90506;-62
2023/10/19 10:49:47;;;;;;;14.13;2.70;;;;;;;;;;5004027;28;88030;-63
2023/10/19 10:52:31;;;;;;;9.75;2.60;;;;;;;;;;5003757;28;88840;-63
2023/10/19 10:55:06;;;;;;;10.27;2.97;;;;;;;;;;5003501;28;89083;-63
2023/10/19 10:57:33;;;;;;;17.38;3.17;;;;;;;;;;4994748;28;89019;-63
2023/10/19 11:00:04;;;;;;;11.40;2.35;;;;;;;;;;4996750;28;88702;-62
2023/10/19 11:02:30;;;;;;;17.88;2.42;;;;;;;;;;4995659;28;89022;-63
2023/10/19 11:04:57;;;;;;;12.30;2.55;;;;;;;;;;4995198;28;88942;-63
2023/10/19 11:07:25;;;;;;;11.60;2.63;;;;;;;;;;4995269;28;90083;-62
2023/10/19 11:09:51;;;;;;;9.60;2.50;;;;;;;;;;4994927;28;88059;-63
2023/10/19 11:12:21;;;;;;;15.03;2.57;;;;;;;;;;4996214;28;88815;-62
2023/10/19 11:14:54;;;;;;;9.75;2.75;;;;;;;;;;4998015;28;88997;-62
2023/10/19 11:17:27;;;;;;;16.40;2.90;;;;;;;;;;4996804;28;88746;-63
2023/10/19 11:19:56;;;;;;;12.65;2.70;;;;;;;;;;4995456;28;89616;-63
2023/10/19 11:22:26;;;;;;;14.15;2.45;;;;;;;;;;4995071;28;88047;-63
2023/10/19 11:24:54;;;;;;;15.20;2.65;;;;;;;;;;4999964;28;89263;-62
2023/10/19 11:27:26;;;;;;;11.75;2.45;;;;;;;;;;4998097;28;88955;-62
2023/10/19 11:29:57;;;;;;;13.65;2.55;;;;;;;;;;5002609;28;88040;-62
2023/10/19 11:32:25;;;;;;;16.63;2.90;;;;;;;;;;4997580;28;88734;-63
2023/10/19 11:34:52;;;;;;;18.25;2.92;;;;;;;;;;4998932;28;90038;-62
2023/10/19 11:37:19;;;;;;;20.02;2.67;;;;;;;;;;5001514;28;89235;-63
2023/10/19 11:39:45;;;;;;;15.38;2.90;;;;;;;;;;4998464;28;88968;-63
2023/10/19 11:42:12;;;;;;;13.80;2.60;;;;;;;;;;4997124;28;88015;-62
2023/10/19 11:44:39;;;;;;;9.82;1.73;;;;;;;;;;4997925;28;88772;-62
2023/10/19 11:47:05;;;;;;;13.20;2.38;;;;;;;;;;5001166;28;89601;-62
2023/10/19 11:49:32;;;;;;;8.95;2.38;;;;;;;;;;4998732;28;87441;-62
2023/10/19 11:51:59;;;;;;;13.80;2.42;;;;;;;;;;5002110;28;88134;-62
2023/10/19 11:54:26;;;;;;;18.00;2.53;;;;;;;;;;4998824;28;90111;-62
2023/10/19 11:56:53;;;;;;;12.65;2.75;;;;;;;;;;5000786;28;88774;-62
2023/10/19 11:59:19;;;;;;;14.65;2.72;;;;;;;;;;4997926;28;89338;-62
2023/10/19 12:01:45;;;;;;;13.80;2.70;;;;;;;;;;5006947;28;89270;-63
2023/10/19 12:04:12;;;;;;;10.00;2.05;;;;;;;;;;4998521;28;89792;-63
2023/10/19 12:06:38;;;;;;;8.05;2.38;;;;;;;;;;4998284;28;89196;-62
2023/10/19 12:09:14;;;;;;;9.70;2.22;;;;;;;;;;4997788;28;88108;-62
2023/10/19 12:11:41;;;;;;;12.52;2.42;;;;;;;;;;5002996;28;89707;-63
2023/10/19 12:14:14;;;;;;;11.00;2.58;;;;;;;;;;4998797;28;89426;-62
2023/10/19 12:16:41;;;;;;;13.25;2.80;;;;;;;;;;5000950;28;88272;-65
2023/10/19 12:19:07;;;;;;;14.65;3.28;;;;;;;;;;5001456;28;87962;-65
2023/10/19 12:21:37;;;;;;;18.73;2.88;;;;;;;;;;4997270;28;89000;-65
2023/10/19 12:24:04;;;;;;;16.98;3.08;;;;;;;;;;4997957;28;89531;-65
2023/10/19 12:26:31;;;;;;;12.95;2.25;;;;;;;;;;4997082;28;87975;-65
2023/10/19 12:28:57;;;;;;;16.30;2.80;;;;;;;;;;4997803;28;88594;-65
2023/10/19 12:31:25;;;;;;;19.30;2.63;;;;;;;;;;4998024;28;89970;-65
2023/10/19 12:33:52;;;;;;;12.85;2.70;;;;;;;;;;4998778;28;91461;-65
2023/10/19 12:38:57;;;;;;;10.98;2.25;;;;;;;;;;4998424;28;88963;-65
2023/10/19 12:41:24;;;;;;;14.23;3.20;;;;;;;;;;5004479;28;89309;-65
2023/10/19 12:43:57;;;;;;;14.70;2.80;;;;;;;;;;4996633;28;88751;-65
2023/10/19 12:46:24;;;;;;;12.48;2.92;;;;;;;;;;5005015;28;89539;-65
2023/10/19 12:48:51;;;;;;;13.88;3.40;;;;;;;;;;4996724;28;88435;-65
2023/10/19 12:51:23;;;;;;;14.02;2.67;;;;;;;;;;5002406;28;90265;-66
2023/10/19 12:53:53;;;;;;;13.05;2.40;;;;;;;;;;4996862;28;89066;-65
2023/10/19 12:56:28;;;;;;;16.07;3.37;;;;;;;;;;4997481;28;88236;-65
2023/10/19 12:58:55;;;;;;;13.45;2.90;;;;;;;;;;4997796;28;88787;-65
2023/10/19 13:01:21;;;;;;;19.77;2.85;;;;;;;;;;5001074;28;88882;-65
2023/10/19 13:03:51;;;;;;;14.23;2.25;;;;;;;;;;5001059;28;88460;-65
2023/10/19 13:06:19;;;;;;;17.30;3.22;;;;;;;;;;5006246;28;88809;-65
2023/10/19 13:08:46;;;;;;;9.13;2.38;;;;;;;;;;4996896;28;88043;-65
2023/10/19 13:11:15;;;;;;;17.70;2.95;;;;;;;;;;4996408;28;89123;-65
2023/10/19 13:13:45;;;;;;;13.32;3.30;;;;;;;;;;4997100;28;89246;-65
2023/10/19 13:16:11;;;;;;;17.77;3.25;;;;;;;;;;4999380;28;88785;-65
2023/10/19 13:18:40;;;;;;;12.30;2.70;;;;;;;;;;5001067;28;90968;-64
2023/10/19 13:21:09;;;;;;;13.23;2.33;;;;;;;;;;4996643;27;89093;-65
2023/10/19 13:23:36;;;;;;;14.32;2.50;;;;;;;;;;4996598;28;88135;-65
2023/10/19 13:26:09;;;;;;;16.48;3.05;;;;;;;;;;4999751;28;88962;-65
2023/10/19 13:28:39;;;;;;;11.13;2.90;;;;;;;;;;5006229;28;88009;-65
2023/10/19 13:31:09;;;;;;;14.90;3.65;;;;;;;;;;4997204;28;89105;-65
2023/10/19 13:33:36;;;;;;;14.20;2.97;;;;;;;;;;4996608;28;89040;-65
2023/10/19 13:36:02;;;;;;;19.73;3.35;;;;;;;;;;4995671;28;89178;-65
2023/10/19 13:38:28;;;;;;;16.90;3.05;;;;;;;;;;5000176;28;90511;-65
2023/10/19 13:40:55;;;;;;;10.57;3.08;;;;;;;;;;4996667;28;88978;-65
2023/10/19 13:43:21;;;;;;;15.73;3.08;;;;;;;;;;5000282;28;88137;-65
2023/10/19 13:45:48;;;;;;;21.77;4.28;;;;;;;;;;4995668;28;88655;-65
2023/10/19 13:48:15;;;;;;;13.95;2.97;;;;;;;;;;5003634;28;88424;-65
2023/10/19 13:50:48;;;;;;;20.17;3.60;;;;;;;;;;5004010;28;88067;-65
2023/10/19 13:53:16;;;;;;;14.48;2.80;;;;;;;;;;4996990;28;88489;-65
2023/10/19 13:55:42;;;;;;;18.80;3.45;;;;;;;;;;5000462;28;88487;-65
2023/10/19 13:58:09;;;;;;;18.13;3.25;;;;;;;;;;4996059;28;88769;-65
2023/10/19 14:00:40;;;;;;;16.30;3.60;;;;;;;;;;4997677;28;89895;-65
2023/10/19 14:03:07;;;;;;;19.17;4.03;;;;;;;;;;4996226;28;88140;-65
2023/10/19 14:05:38;;;;;;;15.60;4.90;;;;;;;;;;4995546;28;88820;-65
2023/10/19 14:08:05;;;;;;;25.77;4.53;;;;;;;;;;4998621;28;88981;-65
2023/10/19 14:10:31;;;;;;;12.73;2.75;;;;;;;;;;4996554;28;89420;-65
2023/10/19 14:12:58;;;;;;;25.77;4.40;;;;;;;;;;4995827;28;88967;-65
2023/10/19 14:15:27;;;;;;;16.27;3.88;;;;;;;;;;4997239;28;88133;-65
2023/10/19 14:17:56;;;;;;;16.92;4.30;;;;;;;;;;5003528;28;89774;-65
2023/10/19 14:20:23;;;;;;;15.70;3.53;;;;;;;;;;4996342;28;89244;-65
2023/10/19 14:22:50;;;;;;;17.95;3.85;;;;;;;;;;4995411;28;88086;-65
2023/10/19 14:25:16;;;;;;;20.83;4.75;;;;;;;;;;4995452;28;89250;-65
2023/10/19 14:27:44;;;;;;;14.63;4.00;;;;;;;;;;4996076;28;89083;-65
2023/10/19 14:30:12;;;;;;;14.02;3.75;;;;;;;;;;4999207;28;88024;-65
2023/10/19 14:32:42;;;;;;;23.75;4.10;;;;;;;;;;4995378;28;88905;-65
2023/10/19 14:35:11;;;;;;;15.35;4.50;;;;;;;;;;4995664;28;88127;-65
2023/10/19 14:37:41;;;;;;;18.52;5.07;;;;;;;;;;4996514;28;90106;-65
2023/10/19 14:40:09;;;;;;;14.88;4.07;;;;;;;;;;4995648;28;89054;-65
2023/10/19 14:42:38;;;;;;;22.02;3.85;;;;;;;;;;4995567;28;87785;-65
2023/10/19 14:45:09;;;;;;;20.03;4.20;;;;;;;;;;4999791;28;89744;-65
2023/10/19 14:47:36;;;;;;;19.33;4.95;;;;;;;;;;5000860;28;88800;-65